Time;durP1;ratioP1;P1;durP2;ratioP2;P2;SDS_P1;SDS_P2;PMS_P1;PMS_P2;Temp;Humidity;BMP_temperature;BMP_pressure;BME280_temperature;BME280_humidity;BME280_pressure;Samples;Min_cycle;Max_cycle;Signal;HPM_P1;HPM_P2
2023/04/10 00:01:20;;;;;;;51.30;33.60;;;;;;;6.35;73.65;99744.48;105598;1251;109863;-73
2023/04/10 00:03:48;;;;;;;56.70;35.20;;;;;;;6.32;73.59;99744.75;105211;1255;102302;-73
2023/04/10 00:06:16;;;;;;;54.30;35.80;;;;;;;6.30;73.51;99742.24;105410;1267;107646;-73
2023/04/10 00:08:44;;;;;;;58.50;36.30;;;;;;;6.28;73.48;99741.78;105474;1255;97391;-73
2023/04/10 00:11:12;;;;;;;57.30;35.70;;;;;;;6.27;73.74;99736.02;105242;1256;97103;-73
2023/04/10 00:13:40;;;;;;;57.30;35.20;;;;;;;6.26;73.79;99732.17;105355;1256;110643;-72
2023/04/10 00:16:08;;;;;;;53.50;33.80;;;;;;;6.25;73.80;99732.40;105406;1271;101943;-73
2023/04/10 00:18:36;;;;;;;55.80;35.30;;;;;;;6.22;73.70;99729.70;105394;1264;108204;-72
2023/04/10 00:21:05;;;;;;;52.00;32.40;;;;;;;6.19;73.78;99730.90;105445;1256;97843;-73
2023/04/10 00:23:33;;;;;;;53.40;33.50;;;;;;;6.16;73.61;99730.16;105301;1257;97089;-73
2023/04/10 00:26:02;;;;;;;56.10;34.80;;;;;;;6.15;73.77;99728.80;105471;1252;109561;-72
2023/04/10 00:28:30;;;;;;;55.30;35.00;;;;;;;6.13;73.94;99721.13;105350;1258;101924;-73
2023/04/10 00:30:58;;;;;;;55.20;34.60;;;;;;;6.12;73.97;99723.26;105538;1256;107615;-73
2023/04/10 00:33:26;;;;;;;52.00;32.80;;;;;;;6.12;73.79;99724.85;105405;1254;97885;-74
2023/04/10 00:35:54;;;;;;;58.10;36.70;;;;;;;6.11;73.85;99723.84;105139;1257;97423;-73
2023/04/10 00:38:22;;;;;;;53.20;34.40;;;;;;;6.11;73.84;99722.60;105503;1254;109635;-73
2023/04/10 00:40:50;;;;;;;54.30;35.90;;;;;;;6.11;73.76;99722.61;105520;1256;101949;-73
2023/04/10 00:43:19;;;;;;;55.30;34.80;;;;;;;6.11;73.92;99721.22;105355;1256;107823;-73
2023/04/10 00:45:47;;;;;;;52.40;33.80;;;;;;;6.10;73.98;99718.77;105187;1256;96579;-75
2023/04/10 00:48:17;;;;;;;54.60;34.50;;;;;;;6.10;73.86;99724.05;105495;1255;98034;-73
2023/04/10 00:50:46;;;;;;;56.10;36.10;;;;;;;6.11;73.98;99722.41;105421;1256;109403;-73
2023/04/10 00:53:15;;;;;;;52.30;33.40;;;;;;;6.11;74.00;99722.27;105689;1251;102246;-72
2023/04/10 00:55:44;;;;;;;55.00;34.10;;;;;;;6.13;74.05;99718.85;105482;1256;107155;-73
2023/04/10 00:58:13;;;;;;;57.90;35.90;;;;;;;6.13;73.93;99721.84;105344;1256;96610;-76
2023/04/10 01:00:44;;;;;;;53.80;34.90;;;;;;;6.13;73.99;99722.00;105570;1256;97026;-73
2023/04/10 01:03:16;;;;;;;52.70;34.60;;;;;;;6.13;74.05;99717.41;105340;1264;109583;-73
2023/04/10 01:05:56;;;;;;;56.70;35.90;;;;;;;6.13;74.18;99717.27;105431;1254;101957;-72
2023/04/10 01:08:46;;;;;;;58.10;36.10;;;;;;;6.11;74.05;99716.23;105326;1253;107769;-72
2023/04/10 01:11:29;;;;;;;57.10;36.40;;;;;;;6.10;73.94;99712.97;105303;1256;97912;-72
2023/04/10 01:14:06;;;;;;;61.40;38.20;;;;;;;6.08;74.41;99712.69;104964;1259;96674;-75
2023/04/10 01:16:45;;;;;;;57.80;36.00;;;;;;;6.06;74.48;99711.22;105223;1274;109904;-73
2023/04/10 01:19:51;;;;;;;56.00;36.00;;;;;;;6.05;74.28;99705.46;105326;1258;102837;-73
2023/04/10 01:22:24;;;;;;;59.60;35.80;;;;;;;6.04;74.41;99705.14;105453;1256;107662;-73
2023/04/10 01:25:11;;;;;;;61.40;37.70;;;;;;;6.02;74.55;99703.80;105456;1256;96619;-76
2023/04/10 01:27:53;;;;;;;60.20;36.30;;;;;;;6.00;74.34;99697.73;105324;1256;97093;-73
2023/04/10 01:30:22;;;;;;;58.60;36.80;;;;;;;5.98;74.45;99698.12;105236;1256;109914;-73
2023/04/10 01:32:54;;;;;;;58.80;36.60;;;;;;;5.97;74.46;99699.94;105385;1264;102227;-73
2023/04/10 01:35:24;;;;;;;60.80;36.40;;;;;;;5.97;74.41;99700.63;105493;1250;107697;-73
2023/04/10 01:37:53;;;;;;;58.10;37.30;;;;;;;5.97;74.38;99702.02;105367;1266;97049;-73
2023/04/10 01:40:24;;;;;;;64.40;38.00;;;;;;;5.96;74.46;99703.30;105542;1256;97090;-73
2023/04/10 01:42:55;;;;;;;64.00;39.50;;;;;;;5.97;74.46;99701.69;105385;1256;109930;-74
2023/04/10 01:45:27;;;;;;;62.60;42.90;;;;;;;5.97;74.45;99697.64;105375;1259;102242;-73
2023/04/10 01:47:55;;;;;;;65.00;42.90;;;;;;;5.97;74.59;99698.70;105229;1263;107659;-74
2023/04/10 01:50:26;;;;;;;62.60;42.10;;;;;;;5.97;74.39;99695.19;105165;1253;96636;-72
2023/04/10 01:52:56;;;;;;;59.40;38.90;;;;;;;5.98;74.86;99695.86;105186;1259;97825;-72
2023/04/10 01:55:26;;;;;;;63.20;40.50;;;;;;;5.98;74.59;99692.86;105326;1256;109525;-73
2023/04/10 01:57:55;;;;;;;62.50;39.00;;;;;;;5.96;74.66;99692.73;105396;1264;101978;-72
2023/04/10 02:00:23;;;;;;;60.40;40.50;;;;;;;5.96;74.81;99694.52;105281;1256;107441;-77
2023/04/10 02:02:50;;;;;;;65.60;40.60;;;;;;;5.95;74.55;99695.80;105241;1253;97804;-73
2023/04/10 02:05:20;;;;;;;66.50;42.40;;;;;;;5.94;74.83;99693.69;105436;1258;97027;-74
2023/04/10 02:08:00;;;;;;;64.50;43.20;;;;;;;5.94;74.65;99695.14;105411;1256;109417;-73
2023/04/10 02:10:35;;;;;;;69.20;45.40;;;;;;;5.93;74.92;99695.71;105123;1257;102272;-74
2023/04/10 02:13:10;;;;;;;65.10;42.80;;;;;;;5.92;75.15;99698.41;105411;1260;107661;-72
2023/04/10 02:15:42;;;;;;;63.10;39.80;;;;;;;5.91;74.90;99702.85;105492;1254;97826;-74
2023/04/10 02:18:14;;;;;;;61.00;38.90;;;;;;;5.91;74.71;99702.10;105305;1254;97030;-73
2023/04/10 02:20:43;;;;;;;62.70;39.60;;;;;;;5.93;74.70;99701.87;105268;1256;109898;-73
2023/04/10 02:23:13;;;;;;;64.70;41.40;;;;;;;5.94;74.79;99703.25;105588;1257;103516;-72
2023/04/10 02:25:44;;;;;;;64.80;40.60;;;;;;;5.94;74.51;99702.89;105384;1264;107711;-73
2023/04/10 02:28:11;;;;;;;63.90;40.80;;;;;;;5.95;74.73;99707.59;105350;1256;96583;-73
2023/04/10 02:30:40;;;;;;;63.70;42.30;;;;;;;5.96;74.83;99702.96;105480;1256;98285;-73
2023/04/10 02:33:07;;;;;;;65.30;41.00;;;;;;;5.98;74.84;99701.33;105207;1257;109739;-73
2023/04/10 02:35:36;;;;;;;66.40;42.00;;;;;;;5.98;74.84;99696.90;105665;1256;100963;-73
2023/04/10 02:38:04;;;;;;;64.00;40.90;;;;;;;5.99;74.74;99702.33;105248;1272;106657;-74
2023/04/10 02:40:32;;;;;;;63.90;41.00;;;;;;;5.98;74.79;99700.26;105352;1256;96607;-73
2023/04/10 02:43:01;;;;;;;61.20;38.40;;;;;;;5.97;74.62;99702.58;105272;1255;97110;-73
2023/04/10 02:45:29;;;;;;;61.80;40.00;;;;;;;5.96;74.78;99704.23;105371;1255;109363;-73
2023/04/10 02:47:57;;;;;;;64.30;38.70;;;;;;;5.94;74.73;99702.19;105661;1254;100692;-74
2023/04/10 02:50:28;;;;;;;62.70;39.30;;;;;;;5.93;74.82;99698.00;105366;1262;107674;-75
2023/04/10 02:52:56;;;;;;;60.40;38.80;;;;;;;5.93;74.72;99694.65;105476;1254;98370;-74
2023/04/10 02:55:24;;;;;;;65.50;40.50;;;;;;;5.94;75.02;99690.58;105412;1256;97081;-74
2023/04/10 02:57:52;;;;;;;66.40;42.30;;;;;;;5.93;74.86;99688.85;105207;1256;108402;-73
2023/04/10 03:00:21;;;;;;;67.00;42.50;;;;;;;5.91;74.60;99682.57;105209;1255;101857;-74
2023/04/10 03:02:50;;;;;;;64.10;40.50;;;;;;;5.91;74.97;99682.59;105296;1257;107714;-77
2023/04/10 03:05:18;;;;;;;64.60;40.90;;;;;;;5.89;74.82;99686.56;105279;1264;96626;-73
2023/04/10 03:07:46;;;;;;;66.40;41.80;;;;;;;5.88;74.86;99690.33;105339;1256;97301;-73
2023/04/10 03:10:14;;;;;;;65.90;41.60;;;;;;;5.87;74.99;99689.98;105452;1257;110002;-73
2023/04/10 03:12:42;;;;;;;65.20;42.90;;;;;;;5.87;74.98;99687.37;105424;1263;102169;-73
2023/04/10 03:15:11;;;;;;;65.80;42.90;;;;;;;5.86;74.86;99689.31;105432;1257;107089;-73
2023/04/10 03:17:39;;;;;;;67.60;43.90;;;;;;;5.85;74.87;99686.20;105632;1260;96596;-73
2023/04/10 03:20:08;;;;;;;67.10;42.70;;;;;;;5.83;74.83;99684.88;105428;1257;97192;-73
2023/04/10 03:22:36;;;;;;;65.20;42.00;;;;;;;5.81;74.90;99689.17;105400;1255;109859;-72
2023/04/10 03:25:05;;;;;;;69.50;44.10;;;;;;;5.79;74.98;99685.39;105605;1255;102201;-72
2023/04/10 03:27:33;;;;;;;68.10;44.60;;;;;;;5.78;74.98;99685.98;105541;1264;107561;-74
2023/04/10 03:30:01;;;;;;;68.20;43.20;;;;;;;5.77;75.23;99687.05;105547;1256;96590;-72
2023/04/10 03:32:30;;;;;;;63.60;43.50;;;;;;;5.76;74.95;99684.64;105547;1256;97194;-73
2023/04/10 03:34:58;;;;;;;71.40;46.30;;;;;;;5.76;75.06;99686.22;105590;1253;109517;-73
2023/04/10 03:37:26;;;;;;;70.90;44.50;;;;;;;5.74;75.29;99686.31;105291;1254;101953;-73
2023/04/10 03:39:54;;;;;;;69.30;44.10;;;;;;;5.72;75.32;99687.77;105355;1253;107612;-73
2023/04/10 03:42:23;;;;;;;69.80;45.40;;;;;;;5.72;75.33;99686.60;105434;1256;96582;-72
2023/04/10 03:44:51;;;;;;;68.80;45.60;;;;;;;5.71;75.09;99691.91;105517;1256;97093;-74
2023/04/10 03:47:18;;;;;;;67.90;44.30;;;;;;;5.70;75.27;99691.95;105523;1254;108173;-72
2023/04/10 03:49:46;;;;;;;75.40;47.30;;;;;;;5.69;75.51;99691.45;105318;1254;102407;-74
2023/04/10 03:52:14;;;;;;;71.20;45.80;;;;;;;5.69;75.29;99689.19;105239;1263;107630;-74
2023/04/10 03:54:42;;;;;;;69.30;45.10;;;;;;;5.69;75.37;99689.02;105426;1257;96603;-72
2023/04/10 03:57:10;;;;;;;75.00;48.20;;;;;;;5.68;75.40;99692.22;105557;1255;97032;-75
2023/04/10 03:59:38;;;;;;;72.50;46.90;;;;;;;5.66;75.46;99686.83;105365;1256;109500;-72
2023/04/10 04:02:06;;;;;;;72.80;46.60;;;;;;;5.65;75.56;99691.08;105558;1264;102248;-72
2023/04/10 04:04:34;;;;;;;68.40;46.50;;;;;;;5.64;75.65;99690.28;105196;1268;107581;-73
2023/04/10 04:07:02;;;;;;;73.70;47.50;;;;;;;5.62;75.79;99693.16;105392;1259;97739;-76
2023/04/10 04:09:30;;;;;;;74.30;50.00;;;;;;;5.61;75.85;99699.37;105501;1261;97024;-77
2023/04/10 04:11:58;;;;;;;79.30;55.00;;;;;;;5.60;75.89;99696.77;105452;1257;110621;-71
2023/04/10 04:14:26;;;;;;;73.00;47.90;;;;;;;5.59;75.90;99692.75;105485;1264;102324;-72
2023/04/10 04:16:54;;;;;;;71.90;47.30;;;;;;;5.59;75.87;99687.80;105428;1256;106625;-74
2023/04/10 04:19:22;;;;;;;73.00;47.50;;;;;;;5.61;75.81;99688.81;105447;1264;96591;-75
2023/04/10 04:21:50;;;;;;;73.90;46.10;;;;;;;5.62;76.27;99693.16;105335;1257;97158;-73
2023/04/10 04:24:17;;;;;;;85.10;46.80;;;;;;;5.63;75.82;99692.75;105535;1255;109758;-73
2023/04/10 04:26:46;;;;;;;74.90;47.80;;;;;;;5.65;76.07;99688.64;105226;1264;102425;-72
2023/04/10 04:29:14;;;;;;;71.80;47.20;;;;;;;5.66;75.82;99691.92;105478;1257;107346;-73
2023/04/10 04:31:42;;;;;;;70.60;44.80;;;;;;;5.69;76.01;99692.02;105463;1257;96590;-74
2023/04/10 04:34:10;;;;;;;76.90;50.40;;;;;;;5.71;75.83;99692.42;105538;1257;97032;-74
2023/04/10 04:36:38;;;;;;;75.20;47.80;;;;;;;5.74;75.86;99693.17;105264;1274;109929;-73
2023/04/10 04:39:06;;;;;;;73.20;48.00;;;;;;;5.77;76.23;99701.52;105243;1256;101974;-74
2023/04/10 04:41:34;;;;;;;68.40;44.60;;;;;;;5.78;76.11;99699.52;105156;1274;107653;-72
2023/04/10 04:44:03;;;;;;;76.60;47.70;;;;;;;5.80;76.27;99699.77;105443;1264;96590;-75
2023/04/10 04:46:31;;;;;;;69.90;45.30;;;;;;;5.81;76.23;99700.61;105277;1265;97839;-73
2023/04/10 04:48:59;;;;;;;72.00;48.10;;;;;;;5.82;76.10;99701.28;105015;1270;109891;-74
2023/04/10 04:51:30;;;;;;;74.10;48.40;;;;;;;5.82;75.98;99705.15;105129;1256;101498;-72
2023/04/10 04:53:58;;;;;;;72.10;45.70;;;;;;;5.83;76.15;99701.79;105393;1256;107571;-74
2023/04/10 04:56:26;;;;;;;74.40;46.30;;;;;;;5.84;76.10;99700.86;105300;1264;97804;-72
2023/04/10 04:58:54;;;;;;;66.20;43.10;;;;;;;5.85;76.40;99703.48;105517;1256;97912;-73
2023/04/10 05:01:22;;;;;;;74.20;47.50;;;;;;;5.86;76.58;99700.08;105319;1251;109913;-74
2023/04/10 05:03:50;;;;;;;73.60;48.80;;;;;;;5.86;76.42;99701.30;105129;1264;102276;-77
2023/04/10 05:06:19;;;;;;;73.40;48.10;;;;;;;5.89;76.58;99706.27;105355;1254;107649;-73
2023/04/10 05:08:47;;;;;;;76.20;48.20;;;;;;;5.93;76.52;99711.38;105366;1252;96610;-73
2023/04/10 05:11:16;;;;;;;85.60;55.60;;;;;;;5.97;76.39;99713.31;105482;1255;97086;-74
2023/04/10 05:13:44;;;;;;;78.10;49.40;;;;;;;6.00;76.96;99715.69;105253;1257;111239;-73
2023/04/10 05:16:12;;;;;;;75.40;49.50;;;;;;;6.04;76.74;99720.63;105235;1265;101823;-72
2023/04/10 05:18:40;;;;;;;78.00;50.30;;;;;;;6.08;76.69;99715.02;105482;1257;107652;-72
2023/04/10 05:21:08;;;;;;;80.50;53.20;;;;;;;6.11;76.70;99715.91;105336;1256;97494;-72
2023/04/10 05:23:37;;;;;;;76.80;47.80;;;;;;;6.15;76.95;99718.55;105244;1257;96683;-73
2023/04/10 05:26:05;;;;;;;71.90;47.50;;;;;;;6.17;76.56;99719.55;105397;1256;109387;-74
2023/04/10 05:28:33;;;;;;;74.10;47.90;;;;;;;6.19;77.08;99729.51;105286;1263;102189;-76
2023/04/10 05:31:01;;;;;;;85.30;54.20;;;;;;;6.21;76.89;99730.11;105397;1256;106792;-73
2023/04/10 05:33:29;;;;;;;77.50;49.50;;;;;;;6.23;76.65;99732.47;105282;1259;96574;-74
2023/04/10 05:35:57;;;;;;;71.90;46.30;;;;;;;6.28;76.88;99734.72;105481;1251;97810;-73
2023/04/10 05:38:25;;;;;;;71.80;47.40;;;;;;;6.31;77.10;99737.95;105188;1256;109515;-72
2023/04/10 05:40:54;;;;;;;72.30;49.40;;;;;;;6.34;77.27;99738.49;105342;1267;102175;-74
2023/04/10 05:43:22;;;;;;;80.10;57.30;;;;;;;6.36;77.16;99741.59;105380;1256;107599;-75
2023/04/10 05:45:50;;;;;;;72.70;47.80;;;;;;;6.39;77.09;99741.64;105234;1267;97836;-73
2023/04/10 05:48:17;;;;;;;65.90;43.40;;;;;;;6.44;76.91;99741.10;105275;1257;97920;-73
2023/04/10 05:50:45;;;;;;;66.60;46.60;;;;;;;6.50;76.92;99738.90;105198;1264;109902;-73
2023/04/10 05:53:14;;;;;;;71.10;48.00;;;;;;;6.57;76.95;99742.41;105373;1251;102189;-73
2023/04/10 05:55:42;;;;;;;67.20;44.00;;;;;;;6.69;76.81;99738.71;105296;1266;107671;-72
2023/04/10 05:58:10;;;;;;;69.00;46.10;;;;;;;6.81;76.94;99731.13;105395;1257;96708;-73
2023/04/10 06:00:38;;;;;;;65.10;43.90;;;;;;;6.91;77.00;99733.46;105081;1256;96597;-73
2023/04/10 06:03:05;;;;;;;63.50;41.30;;;;;;;6.99;77.00;99733.83;105393;1251;109034;-73
2023/04/10 06:05:34;;;;;;;65.10;42.70;;;;;;;7.07;77.06;99735.57;105376;1251;101518;-73
2023/04/10 06:08:02;;;;;;;71.30;49.90;;;;;;;7.16;77.02;99728.78;105126;1266;107709;-74
2023/04/10 06:10:31;;;;;;;61.30;41.00;;;;;;;7.26;77.09;99730.61;105444;1257;96682;-73
2023/04/10 06:12:59;;;;;;;59.60;40.10;;;;;;;7.37;77.18;99726.72;105452;1253;97013;-72
2023/04/10 06:15:28;;;;;;;55.90;39.10;;;;;;;7.43;77.12;99727.45;105569;1254;109753;-76
2023/04/10 06:17:56;;;;;;;72.60;47.50;;;;;;;7.56;77.21;99729.48;105025;1257;101530;-73
2023/04/10 06:20:24;;;;;;;91.60;53.20;;;;;;;7.70;77.32;99733.94;105417;1257;107747;-74
2023/04/10 06:22:53;;;;;;;64.40;41.50;;;;;;;7.83;77.18;99726.55;105178;1263;96584;-73
2023/04/10 06:25:21;;;;;;;61.60;38.60;;;;;;;7.96;77.24;99727.14;105334;1251;97113;-73
2023/04/10 06:27:50;;;;;;;57.30;38.50;;;;;;;8.06;77.04;99730.89;105265;1256;109867;-72
2023/04/10 06:30:18;;;;;;;55.60;36.60;;;;;;;8.09;76.97;99731.94;105421;1267;102745;-72
2023/04/10 06:32:45;;;;;;;58.80;37.80;;;;;;;8.14;77.07;99729.60;105322;1265;107624;-74
2023/04/10 06:35:13;;;;;;;54.70;39.60;;;;;;;8.15;77.23;99731.10;105440;1256;97920;-72
2023/04/10 06:37:42;;;;;;;54.80;38.20;;;;;;;8.11;77.09;99736.80;105386;1256;97081;-74
2023/04/10 06:40:12;;;;;;;58.90;41.90;;;;;;;8.03;77.08;99732.40;105318;1256;109926;-73
2023/04/10 06:42:41;;;;;;;49.00;34.30;;;;;;;8.00;77.10;99724.83;105447;1251;102002;-73
2023/04/10 06:45:09;;;;;;;50.50;34.20;;;;;;;8.00;77.32;99725.33;105426;1254;107316;-73
2023/04/10 06:47:37;;;;;;;49.30;32.10;;;;;;;8.02;77.22;99721.52;105356;1251;96676;-72
2023/04/10 06:50:05;;;;;;;50.70;32.80;;;;;;;8.06;77.30;99720.81;105223;1258;97170;-73
2023/04/10 06:52:33;;;;;;;52.90;34.40;;;;;;;8.11;77.38;99722.16;105509;1251;108469;-73
2023/04/10 06:55:02;;;;;;;51.30;33.80;;;;;;;8.16;77.33;99723.97;105211;1264;100386;-72
2023/04/10 06:57:29;;;;;;;48.50;32.00;;;;;;;8.21;77.34;99722.67;105468;1270;108128;-71
2023/04/10 06:59:57;;;;;;;51.70;33.90;;;;;;;8.24;77.44;99724.63;105358;1257;96619;-72
2023/04/10 07:02:25;;;;;;;47.70;32.30;;;;;;;8.27;77.41;99725.35;105704;1257;97106;-72
2023/04/10 07:04:55;;;;;;;48.30;35.20;;;;;;;8.34;77.47;99720.58;105830;1251;109563;-72
2023/04/10 07:07:24;;;;;;;47.20;30.40;;;;;;;8.44;77.66;99719.02;105705;1251;102191;-73
2023/04/10 07:09:52;;;;;;;46.40;29.50;;;;;;;8.52;77.72;99720.21;107600;1254;107115;-73
2023/04/10 07:12:21;;;;;;;45.30;27.90;;;;;;;8.61;77.52;99718.46;105312;1256;96656;-75
2023/04/10 07:14:49;;;;;;;45.70;29.70;;;;;;;8.73;77.42;99717.67;105273;1256;97908;-75
2023/04/10 07:17:17;;;;;;;42.70;28.00;;;;;;;8.84;77.52;99718.11;105369;1269;109924;-77
2023/04/10 07:19:45;;;;;;;45.00;28.80;;;;;;;8.97;77.55;99716.21;105425;1254;101585;-75
2023/04/10 07:22:14;;;;;;;43.20;26.50;;;;;;;9.09;77.51;99721.02;105208;1257;107636;-75
2023/04/10 07:24:43;;;;;;;41.40;26.60;;;;;;;9.21;77.57;99718.55;105403;1251;96716;-75
2023/04/10 07:27:11;;;;;;;37.80;23.50;;;;;;;9.40;77.38;99714.65;105718;1254;97414;-76
2023/04/10 07:29:39;;;;;;;40.20;25.70;;;;;;;9.60;77.31;99718.09;108715;1253;109927;-73
2023/04/10 07:32:11;;;;;;;38.70;25.00;;;;;;;9.78;77.05;99714.77;106722;1253;102248;-73
2023/04/10 07:34:41;;;;;;;39.80;26.00;;;;;;;9.98;77.22;99715.02;105446;1266;107088;-73
2023/04/10 07:37:09;;;;;;;38.20;25.00;;;;;;;10.14;76.94;99714.77;105704;1256;96411;-74
2023/04/10 07:39:37;;;;;;;42.00;27.90;;;;;;;10.26;76.97;99712.61;105667;1251;97169;-75
2023/04/10 07:42:05;;;;;;;35.20;23.80;;;;;;;10.38;77.05;99704.84;105442;1256;109463;-75
2023/04/10 07:44:33;;;;;;;31.10;19.90;;;;;;;10.47;77.04;99705.54;105182;1256;101024;-74
2023/04/10 07:47:02;;;;;;;32.50;18.40;;;;;;;10.62;76.92;99706.58;105169;1257;106833;-72
2023/04/10 07:49:30;;;;;;;29.30;17.40;;;;;;;10.75;77.02;99706.64;105472;1256;96572;-76
2023/04/10 07:51:58;;;;;;;30.00;16.70;;;;;;;10.90;77.30;99705.11;105419;1251;97807;-72
2023/04/10 07:54:30;;;;;;;30.60;17.80;;;;;;;11.05;76.83;99703.33;105402;1257;109332;-72
2023/04/10 07:57:01;;;;;;;28.90;17.60;;;;;;;11.15;76.30;99707.07;105229;1265;102241;-72
2023/04/10 07:59:29;;;;;;;23.90;14.00;;;;;;;11.19;76.04;99705.61;105398;1266;107694;-73
2023/04/10 08:01:57;;;;;;;30.10;15.80;;;;;;;11.17;76.35;99702.19;105118;1258;97906;-75
2023/04/10 08:04:25;;;;;;;27.00;14.90;;;;;;;11.15;76.26;99703.67;105232;1257;97061;-76
2023/04/10 08:06:54;;;;;;;26.30;13.80;;;;;;;11.15;76.56;99704.25;105411;1255;108506;-74
2023/04/10 08:09:22;;;;;;;28.10;15.00;;;;;;;11.16;76.41;99702.61;105345;1255;102168;-73
2023/04/10 08:11:50;;;;;;;25.50;12.70;;;;;;;11.19;76.22;99705.09;105155;1251;107411;-74
2023/04/10 08:14:18;;;;;;;23.80;13.20;;;;;;;11.21;76.47;99698.59;105350;1257;96551;-73
2023/04/10 08:16:45;;;;;;;22.30;11.20;;;;;;;11.19;76.39;99699.21;105431;1254;97047;-78
2023/04/10 08:19:13;;;;;;;25.60;13.00;;;;;;;11.18;76.35;99689.16;105172;1256;109881;-74
2023/04/10 08:21:42;;;;;;;25.50;12.60;;;;;;;11.21;76.44;99694.25;105521;1256;102236;-73
2023/04/10 08:24:10;;;;;;;24.00;12.90;;;;;;;11.33;76.09;99693.00;105399;1255;107616;-74
2023/04/10 08:26:38;;;;;;;23.20;11.60;;;;;;;11.52;76.54;99689.20;105318;1266;96651;-74
2023/04/10 08:29:13;;;;;;;21.80;11.30;;;;;;;11.79;76.55;99687.11;105191;1267;97218;-77
2023/04/10 08:31:41;;;;;;;24.10;10.90;;;;;;;12.13;76.47;99681.60;105281;1254;108372;-74
2023/04/10 08:34:09;;;;;;;23.40;11.20;;;;;;;12.42;75.68;99679.43;105312;1256;100357;-73
2023/04/10 08:36:38;;;;;;;23.20;10.30;;;;;;;12.63;76.11;99674.04;105388;1257;108042;-74
2023/04/10 08:39:06;;;;;;;24.10;10.70;;;;;;;12.77;75.61;99678.19;105271;1254;97900;-73
2023/04/10 08:41:40;;;;;;;21.20;9.60;;;;;;;12.89;75.62;99678.26;105394;1256;97106;-74
2023/04/10 08:44:08;;;;;;;22.30;10.30;;;;;;;12.97;75.61;99673.20;105507;1265;109510;-74
2023/04/10 08:46:42;;;;;;;18.50;8.80;;;;;;;12.99;75.43;99676.15;105450;1256;102038;-74
2023/04/10 08:49:17;;;;;;;22.60;8.90;;;;;;;12.99;75.41;99672.53;105406;1254;107750;-75
2023/04/10 08:51:53;;;;;;;18.70;8.60;;;;;;;13.02;74.97;99678.71;105328;1253;96622;-74
2023/04/10 08:54:27;;;;;;;20.20;8.60;;;;;;;13.04;74.83;99672.19;105431;1253;96580;-80
2023/04/10 08:56:57;;;;;;;19.20;8.90;;;;;;;13.04;75.14;99672.85;105326;1257;109925;-73
2023/04/10 08:59:28;;;;;;;18.60;8.10;;;;;;;12.95;74.83;99670.35;105334;1259;102378;-73
2023/04/10 09:02:02;;;;;;;20.90;8.90;;;;;;;12.80;74.99;99666.59;105305;1253;108325;-74
2023/04/10 09:04:30;;;;;;;19.10;9.10;;;;;;;12.61;74.25;99665.07;105491;1258;96724;-78
2023/04/10 09:06:59;;;;;;;18.00;8.50;;;;;;;12.45;74.62;99660.88;105205;1255;97106;-73
2023/04/10 09:09:31;;;;;;;19.30;8.40;;;;;;;12.32;74.17;99658.02;105308;1251;165553;-73
2023/04/10 09:12:00;;;;;;;19.80;8.40;;;;;;;12.29;74.00;99660.38;105323;1266;100517;-73
2023/04/10 09:14:34;;;;;;;19.90;8.50;;;;;;;12.28;74.36;99659.04;105308;1256;107606;-74
2023/04/10 09:17:12;;;;;;;;;;;;;;;12.29;74.32;99665.38;105459;1255;97919;-73
2023/04/10 09:19:40;;;;;;;20.10;8.70;;;;;;;12.27;74.19;99658.57;105261;1254;98001;-73
2023/04/10 09:22:08;;;;;;;18.70;7.80;;;;;;;12.30;74.11;99660.39;105446;1256;110030;-73
2023/04/10 09:24:42;;;;;;;19.90;8.60;;;;;;;12.35;74.08;99652.89;105415;1256;101910;-76
2023/04/10 09:27:26;;;;;;;19.00;8.80;;;;;;;12.48;73.22;99648.21;105285;1258;107353;-76
2023/04/10 09:29:54;;;;;;;;;;;;;;;12.71;73.71;99643.38;105478;1251;96687;-79
2023/04/10 09:32:41;;;;;;;16.20;7.40;;;;;;;12.93;74.01;99635.21;105315;1253;97503;-72
2023/04/10 09:35:12;;;;;;;19.90;8.00;;;;;;;13.14;73.91;99639.36;108731;1251;109860;-73
2023/04/10 09:37:43;;;;;;;19.40;8.40;;;;;;;13.24;73.51;99636.82;108085;1251;102964;-75
2023/04/10 09:40:23;;;;;;;15.70;6.80;;;;;;;13.28;73.37;99633.94;105199;1253;106607;-75
2023/04/10 09:42:54;;;;;;;17.00;7.10;;;;;;;13.35;73.47;99626.92;105057;1253;97482;-75
2023/04/10 09:45:23;;;;;;;16.00;7.30;;;;;;;13.48;73.41;99631.59;105115;1257;97054;-73
2023/04/10 09:48:01;;;;;;;19.50;7.50;;;;;;;13.60;73.34;99628.54;105537;1253;109892;-74
2023/04/10 09:50:39;;;;;;;18.00;7.60;;;;;;;13.67;72.83;99627.77;105403;1255;102203;-74
2023/04/10 09:53:10;;;;;;;13.70;6.60;;;;;;;13.60;72.88;99625.70;105534;1251;109512;-78
2023/04/10 09:55:41;;;;;;;17.80;7.50;;;;;;;13.54;72.53;99621.44;105064;1256;96661;-74
2023/04/10 09:58:13;;;;;;;19.00;8.30;;;;;;;13.45;72.54;99618.95;105463;1252;97806;-74
2023/04/10 10:00:46;;;;;;;18.90;8.50;;;;;;;13.33;71.85;99621.42;106251;1254;109731;-74
2023/04/10 10:03:21;;;;;;;17.70;7.70;;;;;;;13.24;72.18;99621.02;106113;1254;102014;-78
2023/04/10 10:05:52;;;;;;;17.50;8.30;;;;;;;13.20;72.02;99621.83;105485;1251;107714;-75
2023/04/10 10:08:21;;;;;;;16.80;7.40;;;;;;;13.16;71.73;99616.60;106087;1251;96673;-74
2023/04/10 10:10:52;;;;;;;19.50;7.90;;;;;;;13.14;72.11;99609.44;105622;1251;97531;-77
2023/04/10 10:13:28;;;;;;;18.50;8.10;;;;;;;13.15;72.21;99612.96;105437;1252;109934;-73
2023/04/10 10:16:01;;;;;;;19.00;7.30;;;;;;;13.16;72.02;99608.56;105473;1255;102241;-75
2023/04/10 10:18:46;;;;;;;16.80;6.60;;;;;;;13.15;72.21;99605.66;105344;1256;107157;-75
2023/04/10 10:21:15;;;;;;;18.30;7.00;;;;;;;13.16;72.17;99603.80;105382;1252;96882;-72
2023/04/10 10:23:45;;;;;;;16.60;7.50;;;;;;;13.31;72.22;99601.09;105660;1256;98248;-74
2023/04/10 10:26:13;;;;;;;18.00;7.10;;;;;;;13.58;71.86;99602.65;105509;1255;109296;-73
2023/04/10 10:28:42;;;;;;;14.00;6.30;;;;;;;13.86;71.82;99592.84;105727;1252;101095;-80
2023/04/10 10:31:11;;;;;;;16.10;6.50;;;;;;;14.12;71.58;99582.95;105512;1255;107562;-75
2023/04/10 10:33:40;;;;;;;12.60;6.70;;;;;;;14.27;71.18;99578.71;105371;1257;97379;-77
2023/04/10 10:36:10;;;;;;;19.50;6.90;;;;;;;14.29;71.04;99576.64;105500;1253;97119;-73
2023/04/10 10:38:44;;;;;;;15.20;6.00;;;;;;;14.21;70.94;99571.60;105255;1256;111186;-76
2023/04/10 10:41:15;;;;;;;;;;;;;;;14.20;70.37;99574.14;105644;1255;101865;-73
2023/04/10 10:43:51;;;;;;;11.90;5.30;;;;;;;14.27;70.81;99570.53;105563;1256;108283;-74
2023/04/10 10:46:28;;;;;;;14.50;5.90;;;;;;;14.39;70.74;99571.16;105365;1267;97137;-74
2023/04/10 10:48:59;;;;;;;18.70;5.50;;;;;;;14.46;70.88;99563.13;105329;1255;99564;-74
2023/04/10 10:51:50;;;;;;;14.90;5.50;;;;;;;14.48;70.89;99560.13;105989;1255;110531;-77
2023/04/10 10:54:33;;;;;;;13.20;5.50;;;;;;;14.53;70.67;99557.63;105447;1253;102216;-74
2023/04/10 10:57:04;;;;;;;13.60;5.50;;;;;;;14.64;70.71;99555.10;105261;1257;107795;-73
2023/04/10 10:59:58;;;;;;;14.30;5.60;;;;;;;14.73;70.57;99549.91;105462;1256;97959;-75
2023/04/10 11:02:26;;;;;;;12.20;5.10;;;;;;;14.83;70.36;99550.37;107976;1252;97129;-74
2023/04/10 11:04:55;;;;;;;23.10;6.10;;;;;;;14.93;68.81;99545.41;105356;1252;108108;-77
2023/04/10 11:07:57;;;;;;;13.00;5.50;;;;;;;15.09;68.64;99541.73;107073;1252;102037;-73
2023/04/10 11:11:04;;;;;;;10.30;4.90;;;;;;;15.26;68.64;99539.82;108675;1252;107620;-73
2023/04/10 11:14:00;;;;;;;15.30;4.80;;;;;;;15.32;67.42;99527.72;108042;1252;96571;-74
2023/04/10 11:16:39;;;;;;;13.60;6.00;;;;;;;15.24;67.51;99535.72;105387;1253;97931;-73
2023/04/10 11:19:11;;;;;;;17.10;6.30;;;;;;;15.20;67.22;99536.61;105350;1255;110519;-75
2023/04/10 11:22:07;;;;;;;12.60;6.30;;;;;;;15.10;67.38;99535.93;105092;1252;101901;-75
2023/04/10 11:25:00;;;;;;;17.70;5.60;;;;;;;14.96;66.16;99537.48;105299;1257;106101;-74
2023/04/10 11:27:51;;;;;;;14.50;5.80;;;;;;;14.76;65.88;99542.15;105305;1253;96609;-74